sensor_id;sensor_type;location;lat;lon;timestamp;P1;durP1;ratioP1;P2;durP2;ratioP2
34317;SDS011;20582;52.196;20.952;2022-11-20T00:02:12;62.50;;;26.08;;
34317;SDS011;20582;52.196;20.952;2022-11-20T00:04:38;63.88;;;27.23;;
34317;SDS011;20582;52.196;20.952;2022-11-20T00:07:04;71.25;;;29.38;;
34317;SDS011;20582;52.196;20.952;2022-11-20T00:09:30;62.80;;;26.45;;
34317;SDS011;20582;52.196;20.952;2022-11-20T00:11:56;66.78;;;26.95;;
34317;SDS011;20582;52.196;20.952;2022-11-20T00:14:22;63.90;;;26.85;;
34317;SDS011;20582;52.196;20.952;2022-11-20T00:16:48;61.85;;;26.15;;
34317;SDS011;20582;52.196;20.952;2022-11-20T00:19:14;67.78;;;27.63;;
34317;SDS011;20582;52.196;20.952;2022-11-20T00:21:40;63.58;;;27.02;;
34317;SDS011;20582;52.196;20.952;2022-11-20T00:24:07;63.97;;;27.05;;
34317;SDS011;20582;52.196;20.952;2022-11-20T00:26:34;62.40;;;26.67;;
34317;SDS011;20582;52.196;20.952;2022-11-20T00:29:00;80.25;;;30.13;;
34317;SDS011;20582;52.196;20.952;2022-11-20T00:31:27;72.15;;;27.60;;
34317;SDS011;20582;52.196;20.952;2022-11-20T00:33:53;71.63;;;27.55;;
34317;SDS011;20582;52.196;20.952;2022-11-20T00:36:24;76.03;;;31.25;;
34317;SDS011;20582;52.196;20.952;2022-11-20T00:38:53;73.60;;;27.92;;
34317;SDS011;20582;52.196;20.952;2022-11-20T00:41:20;66.93;;;28.23;;
34317;SDS011;20582;52.196;20.952;2022-11-20T00:43:46;67.03;;;27.70;;
34317;SDS011;20582;52.196;20.952;2022-11-20T00:46:13;73.10;;;28.80;;
34317;SDS011;20582;52.196;20.952;2022-11-20T00:48:39;72.07;;;29.90;;
34317;SDS011;20582;52.196;20.952;2022-11-20T00:51:05;77.70;;;29.88;;
34317;SDS011;20582;52.196;20.952;2022-11-20T00:53:31;69.78;;;28.42;;
34317;SDS011;20582;52.196;20.952;2022-11-20T00:55:58;62.85;;;26.95;;
34317;SDS011;20582;52.196;20.952;2022-11-20T00:58:25;74.85;;;30.58;;
34317;SDS011;20582;52.196;20.952;2022-11-20T01:00:54;61.15;;;27.55;;
34317;SDS011;20582;52.196;20.952;2022-11-20T01:03:25;63.97;;;27.23;;
34317;SDS011;20582;52.196;20.952;2022-11-20T01:05:51;68.85;;;29.55;;
34317;SDS011;20582;52.196;20.952;2022-11-20T01:08:17;60.58;;;26.27;;
34317;SDS011;20582;52.196;20.952;2022-11-20T01:10:42;57.17;;;25.73;;
34317;SDS011;20582;52.196;20.952;2022-11-20T01:13:08;62.40;;;26.27;;
34317;SDS011;20582;52.196;20.952;2022-11-20T01:15:53;70.00;;;26.80;;
34317;SDS011;20582;52.196;20.952;2022-11-20T01:18:20;62.72;;;25.85;;
34317;SDS011;20582;52.196;20.952;2022-11-20T01:20:45;63.25;;;27.05;;
34317;SDS011;20582;52.196;20.952;2022-11-20T01:23:11;62.50;;;27.65;;
34317;SDS011;20582;52.196;20.952;2022-11-20T01:25:37;58.60;;;26.63;;
34317;SDS011;20582;52.196;20.952;2022-11-20T01:28:03;55.65;;;25.35;;
34317;SDS011;20582;52.196;20.952;2022-11-20T01:30:29;63.75;;;27.83;;
34317;SDS011;20582;52.196;20.952;2022-11-20T01:32:55;66.22;;;28.08;;
34317;SDS011;20582;52.196;20.952;2022-11-20T01:35:21;59.72;;;26.90;;
34317;SDS011;20582;52.196;20.952;2022-11-20T01:37:47;64.85;;;26.77;;
34317;SDS011;20582;52.196;20.952;2022-11-20T01:40:13;61.05;;;25.70;;
34317;SDS011;20582;52.196;20.952;2022-11-20T01:42:44;58.05;;;25.27;;
34317;SDS011;20582;52.196;20.952;2022-11-20T01:48:10;61.85;;;25.23;;
34317;SDS011;20582;52.196;20.952;2022-11-20T01:50:36;56.00;;;25.98;;
34317;SDS011;20582;52.196;20.952;2022-11-20T01:53:04;63.10;;;27.50;;
34317;SDS011;20582;52.196;20.952;2022-11-20T01:55:31;57.95;;;25.83;;
34317;SDS011;20582;52.196;20.952;2022-11-20T01:57:58;55.22;;;24.33;;
34317;SDS011;20582;52.196;20.952;2022-11-20T02:00:25;59.75;;;23.30;;
34317;SDS011;20582;52.196;20.952;2022-11-20T02:02:51;62.63;;;25.58;;
34317;SDS011;20582;52.196;20.952;2022-11-20T02:08:04;55.70;;;24.00;;
34317;SDS011;20582;52.196;20.952;2022-11-20T02:10:30;54.58;;;25.23;;
34317;SDS011;20582;52.196;20.952;2022-11-20T02:12:57;57.55;;;24.65;;
34317;SDS011;20582;52.196;20.952;2022-11-20T02:15:46;55.78;;;26.33;;
34317;SDS011;20582;52.196;20.952;2022-11-20T02:18:13;60.80;;;26.77;;
34317;SDS011;20582;52.196;20.952;2022-11-20T02:20:43;57.03;;;25.15;;
34317;SDS011;20582;52.196;20.952;2022-11-20T02:23:17;63.63;;;27.00;;
34317;SDS011;20582;52.196;20.952;2022-11-20T02:25:46;61.05;;;26.63;;
34317;SDS011;20582;52.196;20.952;2022-11-20T02:28:13;60.05;;;25.90;;
34317;SDS011;20582;52.196;20.952;2022-11-20T02:30:39;63.42;;;27.10;;
34317;SDS011;20582;52.196;20.952;2022-11-20T02:33:05;68.32;;;29.98;;
34317;SDS011;20582;52.196;20.952;2022-11-20T02:37:59;59.28;;;27.63;;
34317;SDS011;20582;52.196;20.952;2022-11-20T02:40:26;61.08;;;27.15;;
34317;SDS011;20582;52.196;20.952;2022-11-20T02:42:54;62.63;;;27.52;;
34317;SDS011;20582;52.196;20.952;2022-11-20T02:45:21;59.65;;;27.08;;
34317;SDS011;20582;52.196;20.952;2022-11-20T02:47:47;59.30;;;25.92;;
34317;SDS011;20582;52.196;20.952;2022-11-20T02:50:13;62.38;;;27.83;;
34317;SDS011;20582;52.196;20.952;2022-11-20T02:52:39;63.17;;;28.55;;
34317;SDS011;20582;52.196;20.952;2022-11-20T02:55:05;58.40;;;27.02;;
34317;SDS011;20582;52.196;20.952;2022-11-20T02:57:31;62.50;;;26.75;;
34317;SDS011;20582;52.196;20.952;2022-11-20T02:59:57;61.17;;;26.55;;
34317;SDS011;20582;52.196;20.952;2022-11-20T03:02:24;68.20;;;28.45;;
34317;SDS011;20582;52.196;20.952;2022-11-20T03:04:50;63.28;;;28.33;;
34317;SDS011;20582;52.196;20.952;2022-11-20T03:07:16;64.75;;;29.02;;
34317;SDS011;20582;52.196;20.952;2022-11-20T03:09:41;59.90;;;26.27;;
34317;SDS011;20582;52.196;20.952;2022-11-20T03:12:07;62.25;;;27.98;;
34317;SDS011;20582;52.196;20.952;2022-11-20T03:14:34;64.15;;;27.15;;
34317;SDS011;20582;52.196;20.952;2022-11-20T03:17:00;57.35;;;27.02;;
34317;SDS011;20582;52.196;20.952;2022-11-20T03:19:26;58.88;;;27.77;;
34317;SDS011;20582;52.196;20.952;2022-11-20T03:21:52;58.58;;;27.08;;
34317;SDS011;20582;52.196;20.952;2022-11-20T03:24:18;58.53;;;26.10;;
34317;SDS011;20582;52.196;20.952;2022-11-20T03:26:44;60.55;;;26.90;;
34317;SDS011;20582;52.196;20.952;2022-11-20T03:29:10;60.97;;;27.55;;
34317;SDS011;20582;52.196;20.952;2022-11-20T03:31:37;58.58;;;25.13;;
34317;SDS011;20582;52.196;20.952;2022-11-20T03:34:05;61.47;;;27.73;;
34317;SDS011;20582;52.196;20.952;2022-11-20T03:36:31;52.92;;;24.65;;
34317;SDS011;20582;52.196;20.952;2022-11-20T03:38:58;57.28;;;24.48;;
34317;SDS011;20582;52.196;20.952;2022-11-20T03:41:27;64.55;;;26.35;;
34317;SDS011;20582;52.196;20.952;2022-11-20T03:43:58;63.67;;;26.52;;
34317;SDS011;20582;52.196;20.952;2022-11-20T03:46:24;61.25;;;26.02;;
34317;SDS011;20582;52.196;20.952;2022-11-20T03:48:52;70.57;;;29.10;;
34317;SDS011;20582;52.196;20.952;2022-11-20T03:51:23;63.38;;;26.05;;
34317;SDS011;20582;52.196;20.952;2022-11-20T03:53:50;68.55;;;26.88;;
34317;SDS011;20582;52.196;20.952;2022-11-20T03:56:17;60.13;;;26.65;;
34317;SDS011;20582;52.196;20.952;2022-11-20T03:58:44;65.45;;;27.70;;
34317;SDS011;20582;52.196;20.952;2022-11-20T04:01:11;64.22;;;28.23;;
34317;SDS011;20582;52.196;20.952;2022-11-20T04:03:38;64.90;;;26.08;;
34317;SDS011;20582;52.196;20.952;2022-11-20T04:06:04;61.58;;;26.25;;
34317;SDS011;20582;52.196;20.952;2022-11-20T04:08:31;62.40;;;26.85;;
34317;SDS011;20582;52.196;20.952;2022-11-20T04:11:07;68.70;;;28.48;;
34317;SDS011;20582;52.196;20.952;2022-11-20T04:13:33;64.03;;;27.25;;
34317;SDS011;20582;52.196;20.952;2022-11-20T04:15:59;69.47;;;26.42;;
34317;SDS011;20582;52.196;20.952;2022-11-20T04:18:25;60.38;;;26.75;;
34317;SDS011;20582;52.196;20.952;2022-11-20T04:20:51;66.10;;;27.67;;
34317;SDS011;20582;52.196;20.952;2022-11-20T04:23:17;60.35;;;26.90;;
34317;SDS011;20582;52.196;20.952;2022-11-20T04:25:43;58.03;;;25.00;;
34317;SDS011;20582;52.196;20.952;2022-11-20T04:28:09;68.22;;;27.55;;
34317;SDS011;20582;52.196;20.952;2022-11-20T04:30:35;63.90;;;27.30;;
34317;SDS011;20582;52.196;20.952;2022-11-20T04:33:01;69.65;;;26.63;;
34317;SDS011;20582;52.196;20.952;2022-11-20T04:35:27;65.70;;;26.35;;
34317;SDS011;20582;52.196;20.952;2022-11-20T04:37:53;62.25;;;26.77;;
34317;SDS011;20582;52.196;20.952;2022-11-20T04:40:19;58.47;;;26.98;;
34317;SDS011;20582;52.196;20.952;2022-11-20T04:42:45;63.95;;;25.98;;
34317;SDS011;20582;52.196;20.952;2022-11-20T04:45:11;66.63;;;27.33;;
34317;SDS011;20582;52.196;20.952;2022-11-20T04:47:37;67.15;;;26.98;;
34317;SDS011;20582;52.196;20.952;2022-11-20T04:50:03;65.35;;;26.02;;
34317;SDS011;20582;52.196;20.952;2022-11-20T04:52:29;60.92;;;26.83;;
34317;SDS011;20582;52.196;20.952;2022-11-20T04:54:55;69.72;;;27.88;;
34317;SDS011;20582;52.196;20.952;2022-11-20T04:57:21;66.00;;;28.83;;
34317;SDS011;20582;52.196;20.952;2022-11-20T04:59:47;68.63;;;28.67;;
34317;SDS011;20582;52.196;20.952;2022-11-20T05:02:13;61.10;;;26.75;;
34317;SDS011;20582;52.196;20.952;2022-11-20T05:04:39;61.10;;;26.50;;
34317;SDS011;20582;52.196;20.952;2022-11-20T05:07:05;61.15;;;28.10;;
34317;SDS011;20582;52.196;20.952;2022-11-20T05:09:31;58.50;;;25.85;;
34317;SDS011;20582;52.196;20.952;2022-11-20T05:11:57;60.88;;;25.95;;
34317;SDS011;20582;52.196;20.952;2022-11-20T05:14:23;60.85;;;26.83;;
34317;SDS011;20582;52.196;20.952;2022-11-20T05:16:49;62.20;;;26.40;;
34317;SDS011;20582;52.196;20.952;2022-11-20T05:19:15;63.95;;;27.10;;
34317;SDS011;20582;52.196;20.952;2022-11-20T05:21:41;62.70;;;27.10;;
34317;SDS011;20582;52.196;20.952;2022-11-20T05:24:07;60.58;;;26.17;;
34317;SDS011;20582;52.196;20.952;2022-11-20T05:26:33;60.67;;;24.98;;
34317;SDS011;20582;52.196;20.952;2022-11-20T05:28:59;66.50;;;26.40;;
34317;SDS011;20582;52.196;20.952;2022-11-20T05:31:25;59.08;;;25.95;;
34317;SDS011;20582;52.196;20.952;2022-11-20T05:33:51;63.22;;;25.67;;
34317;SDS011;20582;52.196;20.952;2022-11-20T05:36:17;66.90;;;25.88;;
34317;SDS011;20582;52.196;20.952;2022-11-20T05:38:43;64.68;;;26.27;;
34317;SDS011;20582;52.196;20.952;2022-11-20T05:41:10;60.92;;;26.63;;
34317;SDS011;20582;52.196;20.952;2022-11-20T05:43:37;58.58;;;24.83;;
34317;SDS011;20582;52.196;20.952;2022-11-20T05:46:04;58.50;;;24.10;;
34317;SDS011;20582;52.196;20.952;2022-11-20T05:48:31;61.63;;;24.40;;
34317;SDS011;20582;52.196;20.952;2022-11-20T05:50:57;63.22;;;26.02;;
34317;SDS011;20582;52.196;20.952;2022-11-20T05:53:24;63.30;;;27.48;;
34317;SDS011;20582;52.196;20.952;2022-11-20T05:56:03;57.97;;;25.45;;
34317;SDS011;20582;52.196;20.952;2022-11-20T05:58:30;57.28;;;25.00;;
34317;SDS011;20582;52.196;20.952;2022-11-20T06:01:29;56.05;;;22.83;;
34317;SDS011;20582;52.196;20.952;2022-11-20T06:03:49;58.03;;;24.75;;
34317;SDS011;20582;52.196;20.952;2022-11-20T06:06:16;58.05;;;24.33;;
34317;SDS011;20582;52.196;20.952;2022-11-20T06:08:42;60.28;;;25.48;;
34317;SDS011;20582;52.196;20.952;2022-11-20T06:11:09;63.22;;;25.25;;
34317;SDS011;20582;52.196;20.952;2022-11-20T06:13:35;57.03;;;24.58;;
34317;SDS011;20582;52.196;20.952;2022-11-20T06:16:01;58.75;;;25.05;;
34317;SDS011;20582;52.196;20.952;2022-11-20T06:18:28;57.63;;;26.85;;
34317;SDS011;20582;52.196;20.952;2022-11-20T06:21:04;64.88;;;25.95;;
34317;SDS011;20582;52.196;20.952;2022-11-20T06:23:31;55.22;;;24.67;;
34317;SDS011;20582;52.196;20.952;2022-11-20T06:26:00;58.10;;;24.83;;
34317;SDS011;20582;52.196;20.952;2022-11-20T06:28:26;58.47;;;26.20;;
34317;SDS011;20582;52.196;20.952;2022-11-20T06:30:52;50.58;;;24.25;;
34317;SDS011;20582;52.196;20.952;2022-11-20T06:33:18;58.10;;;26.63;;
34317;SDS011;20582;52.196;20.952;2022-11-20T06:35:44;58.15;;;24.23;;
34317;SDS011;20582;52.196;20.952;2022-11-20T06:38:10;59.97;;;26.33;;
34317;SDS011;20582;52.196;20.952;2022-11-20T06:40:39;60.13;;;26.70;;
34317;SDS011;20582;52.196;20.952;2022-11-20T06:43:05;56.85;;;25.00;;
34317;SDS011;20582;52.196;20.952;2022-11-20T06:45:31;62.85;;;27.73;;
34317;SDS011;20582;52.196;20.952;2022-11-20T06:47:57;56.30;;;26.38;;
34317;SDS011;20582;52.196;20.952;2022-11-20T06:50:23;61.75;;;24.67;;
34317;SDS011;20582;52.196;20.952;2022-11-20T06:52:49;58.72;;;25.35;;
34317;SDS011;20582;52.196;20.952;2022-11-20T06:55:15;55.33;;;24.55;;
34317;SDS011;20582;52.196;20.952;2022-11-20T06:57:41;56.03;;;26.23;;
34317;SDS011;20582;52.196;20.952;2022-11-20T07:00:07;58.35;;;26.08;;
34317;SDS011;20582;52.196;20.952;2022-11-20T07:02:33;51.15;;;23.98;;
34317;SDS011;20582;52.196;20.952;2022-11-20T07:04:59;67.85;;;28.38;;
34317;SDS011;20582;52.196;20.952;2022-11-20T07:07:25;64.00;;;26.38;;
34317;SDS011;20582;52.196;20.952;2022-11-20T07:09:51;64.00;;;27.35;;
34317;SDS011;20582;52.196;20.952;2022-11-20T07:12:17;54.97;;;25.45;;
34317;SDS011;20582;52.196;20.952;2022-11-20T07:14:43;57.60;;;28.60;;
34317;SDS011;20582;52.196;20.952;2022-11-20T07:17:09;57.67;;;25.80;;
34317;SDS011;20582;52.196;20.952;2022-11-20T07:19:35;59.92;;;25.05;;
34317;SDS011;20582;52.196;20.952;2022-11-20T07:22:01;58.85;;;25.42;;
34317;SDS011;20582;52.196;20.952;2022-11-20T07:24:27;59.17;;;27.48;;
34317;SDS011;20582;52.196;20.952;2022-11-20T07:26:53;59.17;;;25.60;;
34317;SDS011;20582;52.196;20.952;2022-11-20T07:29:19;57.13;;;25.50;;
34317;SDS011;20582;52.196;20.952;2022-11-20T07:31:45;58.30;;;26.13;;
34317;SDS011;20582;52.196;20.952;2022-11-20T07:34:11;58.92;;;25.77;;
34317;SDS011;20582;52.196;20.952;2022-11-20T07:36:37;58.78;;;27.10;;
34317;SDS011;20582;52.196;20.952;2022-11-20T07:39:03;58.78;;;28.17;;
34317;SDS011;20582;52.196;20.952;2022-11-20T07:41:29;56.50;;;25.63;;
34317;SDS011;20582;52.196;20.952;2022-11-20T07:43:56;60.20;;;28.63;;
34317;SDS011;20582;52.196;20.952;2022-11-20T07:46:22;59.35;;;27.70;;
34317;SDS011;20582;52.196;20.952;2022-11-20T07:48:48;60.38;;;27.42;;
34317;SDS011;20582;52.196;20.952;2022-11-20T07:51:14;59.03;;;26.90;;
34317;SDS011;20582;52.196;20.952;2022-11-20T07:53:39;59.50;;;27.98;;
34317;SDS011;20582;52.196;20.952;2022-11-20T07:56:06;59.08;;;27.48;;
34317;SDS011;20582;52.196;20.952;2022-11-20T07:58:32;57.40;;;26.65;;
34317;SDS011;20582;52.196;20.952;2022-11-20T08:01:06;55.95;;;27.05;;
34317;SDS011;20582;52.196;20.952;2022-11-20T08:03:32;53.10;;;25.52;;
34317;SDS011;20582;52.196;20.952;2022-11-20T08:05:58;55.65;;;26.85;;
34317;SDS011;20582;52.196;20.952;2022-11-20T08:08:25;59.15;;;28.27;;
34317;SDS011;20582;52.196;20.952;2022-11-20T08:10:51;55.63;;;28.60;;
34317;SDS011;20582;52.196;20.952;2022-11-20T08:13:37;53.00;;;27.05;;
34317;SDS011;20582;52.196;20.952;2022-11-20T08:16:22;50.28;;;27.98;;
34317;SDS011;20582;52.196;20.952;2022-11-20T08:18:48;56.70;;;29.58;;
34317;SDS011;20582;52.196;20.952;2022-11-20T08:21:14;58.03;;;30.52;;
34317;SDS011;20582;52.196;20.952;2022-11-20T08:23:40;51.53;;;29.63;;
34317;SDS011;20582;52.196;20.952;2022-11-20T08:26:06;50.22;;;30.33;;
34317;SDS011;20582;52.196;20.952;2022-11-20T08:28:32;51.65;;;29.00;;
34317;SDS011;20582;52.196;20.952;2022-11-20T08:30:59;52.38;;;29.70;;
34317;SDS011;20582;52.196;20.952;2022-11-20T08:33:25;52.10;;;30.75;;
34317;SDS011;20582;52.196;20.952;2022-11-20T08:35:51;54.13;;;31.13;;
34317;SDS011;20582;52.196;20.952;2022-11-20T08:38:17;48.70;;;29.42;;
34317;SDS011;20582;52.196;20.952;2022-11-20T08:40:43;52.92;;;31.17;;
34317;SDS011;20582;52.196;20.952;2022-11-20T08:43:29;54.70;;;32.78;;
34317;SDS011;20582;52.196;20.952;2022-11-20T08:45:56;50.97;;;31.05;;
34317;SDS011;20582;52.196;20.952;2022-11-20T08:48:22;55.45;;;30.88;;
34317;SDS011;20582;52.196;20.952;2022-11-20T08:50:48;54.78;;;30.13;;
34317;SDS011;20582;52.196;20.952;2022-11-20T08:53:14;53.10;;;30.58;;
34317;SDS011;20582;52.196;20.952;2022-11-20T08:55:40;50.88;;;29.33;;
34317;SDS011;20582;52.196;20.952;2022-11-20T08:58:06;51.10;;;31.35;;
34317;SDS011;20582;52.196;20.952;2022-11-20T09:00:32;53.90;;;32.03;;
34317;SDS011;20582;52.196;20.952;2022-11-20T09:02:58;61.17;;;32.67;;
34317;SDS011;20582;52.196;20.952;2022-11-20T09:05:25;53.63;;;30.67;;
34317;SDS011;20582;52.196;20.952;2022-11-20T09:07:51;53.47;;;31.58;;
34317;SDS011;20582;52.196;20.952;2022-11-20T09:10:17;52.25;;;32.95;;
34317;SDS011;20582;52.196;20.952;2022-11-20T09:12:43;51.03;;;30.85;;
34317;SDS011;20582;52.196;20.952;2022-11-20T09:15:09;53.42;;;31.30;;
34317;SDS011;20582;52.196;20.952;2022-11-20T09:17:36;55.00;;;32.10;;
34317;SDS011;20582;52.196;20.952;2022-11-20T09:20:02;59.03;;;32.00;;
34317;SDS011;20582;52.196;20.952;2022-11-20T09:22:29;53.90;;;31.23;;
34317;SDS011;20582;52.196;20.952;2022-11-20T09:24:54;52.85;;;30.35;;
34317;SDS011;20582;52.196;20.952;2022-11-20T09:27:20;57.17;;;33.70;;
34317;SDS011;20582;52.196;20.952;2022-11-20T09:29:47;54.63;;;32.75;;
34317;SDS011;20582;52.196;20.952;2022-11-20T09:32:13;52.42;;;31.73;;
34317;SDS011;20582;52.196;20.952;2022-11-20T09:34:39;49.60;;;30.50;;
34317;SDS011;20582;52.196;20.952;2022-11-20T09:37:05;55.38;;;33.67;;
34317;SDS011;20582;52.196;20.952;2022-11-20T09:39:31;54.75;;;34.00;;
34317;SDS011;20582;52.196;20.952;2022-11-20T09:42:03;51.92;;;32.20;;
34317;SDS011;20582;52.196;20.952;2022-11-20T09:47:00;53.33;;;34.58;;
34317;SDS011;20582;52.196;20.952;2022-11-20T09:54:26;53.33;;;35.28;;
34317;SDS011;20582;52.196;20.952;2022-11-20T09:56:54;51.33;;;34.92;;
34317;SDS011;20582;52.196;20.952;2022-11-20T10:01:46;54.40;;;35.45;;
34317;SDS011;20582;52.196;20.952;2022-11-20T10:04:15;53.72;;;36.13;;
34317;SDS011;20582;52.196;20.952;2022-11-20T10:09:34;55.60;;;36.38;;
34317;SDS011;20582;52.196;20.952;2022-11-20T10:14:43;53.63;;;35.08;;
34317;SDS011;20582;52.196;20.952;2022-11-20T10:19:55;50.83;;;33.60;;
34317;SDS011;20582;52.196;20.952;2022-11-20T10:25:15;52.47;;;33.78;;
34317;SDS011;20582;52.196;20.952;2022-11-20T10:30:20;50.15;;;33.25;;
34317;SDS011;20582;52.196;20.952;2022-11-20T10:32:54;47.83;;;33.50;;
34317;SDS011;20582;52.196;20.952;2022-11-20T10:35:25;49.22;;;34.45;;
34317;SDS011;20582;52.196;20.952;2022-11-20T10:38:01;48.83;;;30.73;;
34317;SDS011;20582;52.196;20.952;2022-11-20T10:40:34;48.30;;;31.95;;
34317;SDS011;20582;52.196;20.952;2022-11-20T10:43:01;55.85;;;34.67;;
34317;SDS011;20582;52.196;20.952;2022-11-20T10:45:32;49.80;;;32.63;;
34317;SDS011;20582;52.196;20.952;2022-11-20T10:50:50;45.38;;;32.20;;
34317;SDS011;20582;52.196;20.952;2022-11-20T10:56:07;45.30;;;29.70;;
34317;SDS011;20582;52.196;20.952;2022-11-20T10:58:37;47.60;;;30.80;;
34317;SDS011;20582;52.196;20.952;2022-11-20T11:03:32;49.47;;;30.48;;
34317;SDS011;20582;52.196;20.952;2022-11-20T11:06:08;50.97;;;32.45;;
34317;SDS011;20582;52.196;20.952;2022-11-20T11:08:38;51.30;;;31.80;;
34317;SDS011;20582;52.196;20.952;2022-11-20T11:13:33;46.95;;;28.95;;
34317;SDS011;20582;52.196;20.952;2022-11-20T11:15:59;48.90;;;29.90;;
34317;SDS011;20582;52.196;20.952;2022-11-20T11:20:51;50.25;;;29.02;;
34317;SDS011;20582;52.196;20.952;2022-11-20T11:25:57;45.83;;;29.75;;
34317;SDS011;20582;52.196;20.952;2022-11-20T11:28:24;47.20;;;29.38;;
34317;SDS011;20582;52.196;20.952;2022-11-20T11:30:52;47.75;;;29.38;;
34317;SDS011;20582;52.196;20.952;2022-11-20T11:33:19;43.67;;;27.40;;
34317;SDS011;20582;52.196;20.952;2022-11-20T11:35:47;44.70;;;26.67;;
34317;SDS011;20582;52.196;20.952;2022-11-20T11:38:14;47.83;;;28.45;;
34317;SDS011;20582;52.196;20.952;2022-11-20T11:40:43;45.70;;;27.98;;
34317;SDS011;20582;52.196;20.952;2022-11-20T11:43:19;46.50;;;28.10;;
34317;SDS011;20582;52.196;20.952;2022-11-20T11:49:08;42.03;;;27.40;;
34317;SDS011;20582;52.196;20.952;2022-11-20T11:54:23;43.50;;;27.20;;
34317;SDS011;20582;52.196;20.952;2022-11-20T11:56:50;43.65;;;27.70;;
34317;SDS011;20582;52.196;20.952;2022-11-20T11:59:27;42.65;;;27.33;;
34317;SDS011;20582;52.196;20.952;2022-11-20T12:01:55;37.88;;;25.25;;
34317;SDS011;20582;52.196;20.952;2022-11-20T12:07:10;35.95;;;24.95;;
34317;SDS011;20582;52.196;20.952;2022-11-20T12:09:38;38.60;;;26.00;;
34317;SDS011;20582;52.196;20.952;2022-11-20T12:12:11;37.33;;;26.10;;
34317;SDS011;20582;52.196;20.952;2022-11-20T12:14:43;39.33;;;25.60;;
34317;SDS011;20582;52.196;20.952;2022-11-20T12:17:10;38.33;;;25.70;;
34317;SDS011;20582;52.196;20.952;2022-11-20T12:19:36;37.35;;;26.40;;
34317;SDS011;20582;52.196;20.952;2022-11-20T12:24:46;37.30;;;25.67;;
34317;SDS011;20582;52.196;20.952;2022-11-20T12:30:19;38.28;;;24.95;;
34317;SDS011;20582;52.196;20.952;2022-11-20T12:40:59;44.38;;;26.80;;
34317;SDS011;20582;52.196;20.952;2022-11-20T12:43:27;38.13;;;25.88;;
34317;SDS011;20582;52.196;20.952;2022-11-20T12:49:01;39.25;;;24.92;;
34317;SDS011;20582;52.196;20.952;2022-11-20T12:56:35;41.90;;;26.33;;
34317;SDS011;20582;52.196;20.952;2022-11-20T12:59:12;41.42;;;26.35;;
34317;SDS011;20582;52.196;20.952;2022-11-20T13:01:43;42.92;;;24.25;;
34317;SDS011;20582;52.196;20.952;2022-11-20T13:04:30;39.97;;;24.83;;
34317;SDS011;20582;52.196;20.952;2022-11-20T13:07:00;37.95;;;23.90;;
34317;SDS011;20582;52.196;20.952;2022-11-20T13:09:27;43.15;;;25.17;;
34317;SDS011;20582;52.196;20.952;2022-11-20T13:11:58;40.83;;;23.73;;
34317;SDS011;20582;52.196;20.952;2022-11-20T13:19:52;46.15;;;26.60;;
34317;SDS011;20582;52.196;20.952;2022-11-20T13:22:28;46.00;;;24.25;;
34317;SDS011;20582;52.196;20.952;2022-11-20T13:24:54;40.47;;;23.90;;
34317;SDS011;20582;52.196;20.952;2022-11-20T13:27:21;46.92;;;24.52;;
34317;SDS011;20582;52.196;20.952;2022-11-20T13:30:01;44.70;;;24.35;;
34317;SDS011;20582;52.196;20.952;2022-11-20T13:32:28;47.38;;;23.60;;
34317;SDS011;20582;52.196;20.952;2022-11-20T13:35:00;46.95;;;24.50;;
34317;SDS011;20582;52.196;20.952;2022-11-20T13:37:36;42.20;;;21.75;;
34317;SDS011;20582;52.196;20.952;2022-11-20T13:45:25;49.10;;;24.33;;
34317;SDS011;20582;52.196;20.952;2022-11-20T13:47:52;49.33;;;23.98;;
34317;SDS011;20582;52.196;20.952;2022-11-20T13:50:18;53.58;;;25.95;;
34317;SDS011;20582;52.196;20.952;2022-11-20T14:00:30;48.45;;;23.33;;
34317;SDS011;20582;52.196;20.952;2022-11-20T14:03:02;47.60;;;23.73;;
34317;SDS011;20582;52.196;20.952;2022-11-20T14:05:35;50.00;;;25.17;;
34317;SDS011;20582;52.196;20.952;2022-11-20T14:08:02;53.65;;;25.35;;
34317;SDS011;20582;52.196;20.952;2022-11-20T14:10:29;51.75;;;24.67;;
34317;SDS011;20582;52.196;20.952;2022-11-20T14:12:55;50.13;;;25.48;;
34317;SDS011;20582;52.196;20.952;2022-11-20T14:15:26;49.33;;;24.85;;
34317;SDS011;20582;52.196;20.952;2022-11-20T14:17:52;48.88;;;24.67;;
34317;SDS011;20582;52.196;20.952;2022-11-20T14:20:18;55.58;;;25.08;;
34317;SDS011;20582;52.196;20.952;2022-11-20T14:22:48;49.72;;;23.05;;
34317;SDS011;20582;52.196;20.952;2022-11-20T14:27:42;53.17;;;25.05;;
34317;SDS011;20582;52.196;20.952;2022-11-20T14:33:02;50.35;;;25.60;;
34317;SDS011;20582;52.196;20.952;2022-11-20T14:35:30;53.55;;;27.60;;
34317;SDS011;20582;52.196;20.952;2022-11-20T14:37:56;57.42;;;28.23;;
34317;SDS011;20582;52.196;20.952;2022-11-20T14:40:24;59.45;;;30.45;;
34317;SDS011;20582;52.196;20.952;2022-11-20T14:42:50;59.60;;;28.42;;
34317;SDS011;20582;52.196;20.952;2022-11-20T14:45:16;55.28;;;28.17;;
34317;SDS011;20582;52.196;20.952;2022-11-20T14:47:42;54.20;;;28.88;;
34317;SDS011;20582;52.196;20.952;2022-11-20T14:50:25;53.83;;;27.70;;
34317;SDS011;20582;52.196;20.952;2022-11-20T14:52:55;58.40;;;29.85;;
34317;SDS011;20582;52.196;20.952;2022-11-20T14:57:54;60.00;;;25.58;;
34317;SDS011;20582;52.196;20.952;2022-11-20T15:00:20;56.13;;;26.70;;
34317;SDS011;20582;52.196;20.952;2022-11-20T15:02:47;57.50;;;28.25;;
34317;SDS011;20582;52.196;20.952;2022-11-20T15:05:13;56.75;;;28.73;;
34317;SDS011;20582;52.196;20.952;2022-11-20T15:07:40;55.90;;;27.05;;
34317;SDS011;20582;52.196;20.952;2022-11-20T15:10:13;55.13;;;27.20;;
34317;SDS011;20582;52.196;20.952;2022-11-20T15:12:50;58.75;;;29.85;;
34317;SDS011;20582;52.196;20.952;2022-11-20T15:15:17;61.03;;;27.42;;
34317;SDS011;20582;52.196;20.952;2022-11-20T15:17:46;53.40;;;26.17;;
34317;SDS011;20582;52.196;20.952;2022-11-20T15:20:13;58.45;;;27.77;;
34317;SDS011;20582;52.196;20.952;2022-11-20T15:22:40;53.85;;;26.60;;
34317;SDS011;20582;52.196;20.952;2022-11-20T15:25:13;57.22;;;27.55;;
34317;SDS011;20582;52.196;20.952;2022-11-20T15:27:40;53.47;;;25.40;;
34317;SDS011;20582;52.196;20.952;2022-11-20T15:30:16;52.63;;;25.73;;
34317;SDS011;20582;52.196;20.952;2022-11-20T15:32:43;57.47;;;26.40;;
34317;SDS011;20582;52.196;20.952;2022-11-20T15:35:09;52.95;;;27.75;;
34317;SDS011;20582;52.196;20.952;2022-11-20T15:37:35;62.72;;;26.77;;
34317;SDS011;20582;52.196;20.952;2022-11-20T15:40:02;56.03;;;26.25;;
34317;SDS011;20582;52.196;20.952;2022-11-20T15:42:28;53.78;;;25.08;;
34317;SDS011;20582;52.196;20.952;2022-11-20T15:44:54;53.53;;;25.85;;
34317;SDS011;20582;52.196;20.952;2022-11-20T15:47:20;54.35;;;25.33;;
34317;SDS011;20582;52.196;20.952;2022-11-20T15:49:48;57.28;;;27.02;;
34317;SDS011;20582;52.196;20.952;2022-11-20T15:52:14;57.45;;;27.38;;
34317;SDS011;20582;52.196;20.952;2022-11-20T15:54:41;60.25;;;26.90;;
34317;SDS011;20582;52.196;20.952;2022-11-20T15:57:07;52.20;;;27.08;;